Time;durP1;ratioP1;P1;durP2;ratioP2;P2;SDS_P1;SDS_P2;PMS_P1;PMS_P2;Temp;Humidity;BMP_temperature;BMP_pressure;BME280_temperature;BME280_humidity;BME280_pressure;Samples;Min_cycle;Max_cycle;Signal;HPM_P1;HPM_P2
2021/10/24 00:00:43;;;;;;;28.83;19.93;;;6.30;99.90;;;;;;5033235;28;20702;-73
2021/10/24 00:03:08;;;;;;;31.23;22.27;;;6.30;99.90;;;;;;5033111;28;20158;-73
2021/10/24 00:05:34;;;;;;;25.77;19.60;;;6.30;99.90;;;;;;5033119;28;20694;-73
2021/10/24 00:07:59;;;;;;;31.47;19.93;;;6.30;99.90;;;;;;5032895;28;20541;-74
2021/10/24 00:10:25;;;;;;;40.80;20.23;;;6.20;99.90;;;;;;5032982;28;20520;-73
2021/10/24 00:12:50;;;;;;;25.43;19.27;;;6.20;99.90;;;;;;5032693;28;20179;-73
2021/10/24 00:15:16;;;;;;;22.30;15.87;;;6.20;99.90;;;;;;5032701;28;20179;-74
2021/10/24 00:17:41;;;;;;;26.67;16.80;;;6.20;99.90;;;;;;5032994;28;20195;-73
2021/10/24 00:20:08;;;;;;;18.77;15.40;;;6.20;99.90;;;;;;5032757;28;20225;-73
2021/10/24 00:22:33;;;;;;;17.60;14.07;;;6.20;99.90;;;;;;5032242;28;20211;-73
2021/10/24 00:24:59;;;;;;;18.60;15.27;;;6.20;99.90;;;;;;5032889;28;20479;-73
2021/10/24 00:27:26;;;;;;;18.80;14.50;;;6.20;99.90;;;;;;5032688;28;20669;-73
2021/10/24 00:29:52;;;;;;;16.67;14.27;;;6.20;99.90;;;;;;5032230;28;20166;-73
2021/10/24 00:32:17;;;;;;;17.60;15.17;;;6.20;99.90;;;;;;5032432;28;20423;-73
2021/10/24 00:34:43;;;;;;;20.03;14.50;;;6.20;99.90;;;;;;5032666;28;20162;-73
2021/10/24 00:37:09;;;;;;;23.20;14.83;;;6.20;99.90;;;;;;5032487;28;20642;-73
2021/10/24 00:39:34;;;;;;;31.67;15.20;;;6.20;99.90;;;;;;5032624;28;20178;-73
2021/10/24 00:42:00;;;;;;;15.13;13.23;;;6.10;99.90;;;;;;5032677;28;20423;-73
2021/10/24 00:44:29;;;;;;;16.30;13.30;;;6.10;99.90;;;;;;5032687;28;20183;-73
2021/10/24 00:46:56;;;;;;;13.80;11.33;;;6.20;99.90;;;;;;5032121;28;20215;-73
2021/10/24 00:49:23;;;;;;;14.83;12.97;;;6.10;99.90;;;;;;5032133;28;20502;-73
2021/10/24 00:51:51;;;;;;;16.03;12.17;;;6.20;99.90;;;;;;5032380;28;20415;-73
2021/10/24 00:54:20;;;;;;;15.60;12.13;;;6.20;99.90;;;;;;5032454;28;20393;-73
2021/10/24 00:56:49;;;;;;;23.77;18.17;;;6.20;99.90;;;;;;5032450;28;20400;-73
2021/10/24 00:59:15;;;;;;;15.23;10.97;;;6.20;99.90;;;;;;5032344;28;20507;-73
2021/10/24 01:01:40;;;;;;;15.43;11.20;;;6.20;99.90;;;;;;5032128;28;20426;-73
2021/10/24 01:04:06;;;;;;;13.67;10.93;;;6.20;99.90;;;;;;5032384;28;20402;-73
2021/10/24 01:06:33;;;;;;;14.03;11.47;;;6.20;99.90;;;;;;5032418;28;20238;-73
2021/10/24 01:08:59;;;;;;;11.57;10.40;;;6.20;99.90;;;;;;5031857;28;21025;-73
2021/10/24 01:11:27;;;;;;;12.30;10.50;;;6.20;99.90;;;;;;5032286;28;20389;-74
2021/10/24 01:13:53;;;;;;;15.40;12.17;;;6.20;99.90;;;;;;5032369;28;20157;-73
2021/10/24 01:16:19;;;;;;;19.60;12.53;;;6.20;99.90;;;;;;5032357;28;20404;-73
2021/10/24 01:18:45;;;;;;;17.03;13.40;;;6.20;99.90;;;;;;5032301;28;20922;-73
2021/10/24 01:21:11;;;;;;;14.43;11.37;;;6.20;99.90;;;;;;5032220;28;20238;-73
2021/10/24 01:23:37;;;;;;;14.03;12.13;;;6.20;99.90;;;;;;5031834;28;20504;-73
2021/10/24 01:26:03;;;;;;;15.30;11.77;;;6.20;99.90;;;;;;5032452;28;20184;-73
2021/10/24 01:28:29;;;;;;;15.07;11.30;;;6.20;99.90;;;;;;5032195;28;20189;-73
2021/10/24 01:30:55;;;;;;;11.10;9.90;;;6.20;99.90;;;;;;5031266;28;20496;-73
2021/10/24 01:33:22;;;;;;;12.70;10.10;;;6.20;99.90;;;;;;5031857;28;20180;-73
2021/10/24 01:36:06;;;;;;;13.53;8.90;;;6.20;99.90;;;;;;5032421;28;20416;-73
2021/10/24 01:38:33;;;;;;;13.07;9.73;;;6.20;99.90;;;;;;5032098;28;20467;-73
2021/10/24 01:40:58;;;;;;;12.67;9.43;;;6.10;99.90;;;;;;5031960;28;20835;-73
2021/10/24 01:43:26;;;;;;;12.70;9.23;;;6.20;99.90;;;;;;5032101;28;20513;-73
2021/10/24 01:45:52;;;;;;;12.73;9.90;;;6.10;99.90;;;;;;5031581;28;20437;-73
2021/10/24 01:48:19;;;;;;;12.00;9.70;;;6.20;99.90;;;;;;5031660;28;20453;-73
2021/10/24 01:50:45;;;;;;;12.73;10.07;;;6.10;99.90;;;;;;5031956;28;20388;-73
2021/10/24 01:53:15;;;;;;;11.77;9.13;;;6.10;99.90;;;;;;5031989;28;20389;-73
2021/10/24 01:55:40;;;;;;;12.90;10.93;;;6.10;99.90;;;;;;5034827;28;20472;-73
2021/10/24 01:58:06;;;;;;;14.10;11.50;;;6.10;99.90;;;;;;5035451;28;20878;-73
2021/10/24 02:00:31;;;;;;;13.40;10.67;;;6.10;99.90;;;;;;5035000;28;20609;-73
2021/10/24 02:02:59;;;;;;;14.60;11.10;;;6.10;99.90;;;;;;5035574;28;20204;-73
2021/10/24 02:05:24;;;;;;;12.90;11.50;;;6.10;99.90;;;;;;5035175;28;20650;-73
2021/10/24 02:07:50;;;;;;;12.50;11.20;;;6.10;99.90;;;;;;5035314;28;20486;-73
2021/10/24 02:10:17;;;;;;;11.93;9.80;;;6.10;99.90;;;;;;5035293;28;20163;-73
2021/10/24 02:12:43;;;;;;;13.73;10.83;;;6.10;99.90;;;;;;5035239;28;20165;-73
2021/10/24 02:15:11;;;;;;;14.83;10.13;;;6.10;99.90;;;;;;5035155;28;20913;-73
2021/10/24 02:17:37;;;;;;;18.37;12.13;;;6.10;99.90;;;;;;5034974;28;20488;-73
2021/10/24 02:20:05;;;;;;;11.57;10.23;;;6.10;99.90;;;;;;5035403;28;20873;-74
2021/10/24 02:22:32;;;;;;;12.53;10.10;;;6.10;99.90;;;;;;5035016;28;20405;-73
2021/10/24 02:24:57;;;;;;;12.77;11.07;;;6.00;99.90;;;;;;5034949;28;20403;-73
2021/10/24 02:27:23;;;;;;;16.33;10.70;;;6.10;99.90;;;;;;5034628;28;20951;-73
2021/10/24 02:29:48;;;;;;;16.93;12.13;;;6.10;99.90;;;;;;5034232;28;20182;-73
2021/10/24 02:32:14;;;;;;;13.90;12.07;;;6.00;99.90;;;;;;5034917;28;20550;-73
2021/10/24 02:34:40;;;;;;;21.40;11.47;;;6.00;99.90;;;;;;5035282;28;20164;-73
2021/10/24 02:37:07;;;;;;;11.47;9.80;;;6.00;99.90;;;;;;5035307;28;20463;-72
2021/10/24 02:39:32;;;;;;;12.90;9.90;;;6.00;99.90;;;;;;5034671;28;20539;-72
2021/10/24 02:41:58;;;;;;;14.40;9.60;;;6.00;99.90;;;;;;5034629;28;20900;-72
2021/10/24 02:44:24;;;;;;;14.47;9.20;;;6.00;99.90;;;;;;5034612;28;20538;-72
2021/10/24 02:46:51;;;;;;;13.37;8.40;;;6.00;99.90;;;;;;5034420;28;20543;-72
2021/10/24 02:49:17;;;;;;;10.97;9.80;;;6.00;99.90;;;;;;5034892;28;20253;-72
2021/10/24 02:51:43;;;;;;;12.30;9.67;;;6.00;99.90;;;;;;5034802;28;20404;-72
2021/10/24 02:54:10;;;;;;;12.57;10.40;;;6.00;99.90;;;;;;5034319;28;20430;-72
2021/10/24 02:56:36;;;;;;;11.93;9.90;;;6.00;99.90;;;;;;5034366;28;20426;-72
2021/10/24 02:59:01;;;;;;;10.83;8.60;;;6.00;99.90;;;;;;5034254;28;20933;-72
2021/10/24 03:01:27;;;;;;;12.57;9.90;;;6.00;99.90;;;;;;5034444;28;20240;-72
2021/10/24 03:03:53;;;;;;;10.73;8.47;;;6.00;99.90;;;;;;5034187;28;20250;-72
2021/10/24 03:06:18;;;;;;;15.80;11.33;;;6.00;99.90;;;;;;5033963;28;20534;-72
2021/10/24 03:08:44;;;;;;;12.73;10.73;;;6.00;99.90;;;;;;5034176;28;20200;-73
2021/10/24 03:11:10;;;;;;;16.07;12.77;;;6.00;99.90;;;;;;5034169;28;20163;-72
2021/10/24 03:13:35;;;;;;;14.10;11.10;;;6.00;99.90;;;;;;5034072;28;20173;-72
2021/10/24 03:16:01;;;;;;;16.23;12.37;;;6.00;99.90;;;;;;5034128;28;20163;-72
2021/10/24 03:18:26;;;;;;;14.57;10.27;;;6.00;99.90;;;;;;5033672;28;20181;-72
2021/10/24 03:20:52;;;;;;;16.40;10.33;;;6.00;99.90;;;;;;5033796;28;20171;-72
2021/10/24 03:23:18;;;;;;;15.23;10.47;;;6.00;99.90;;;;;;5034002;28;20171;-72
2021/10/24 03:25:44;;;;;;;13.60;10.40;;;6.00;99.90;;;;;;5033720;28;20182;-72
2021/10/24 03:28:09;;;;;;;11.03;9.53;;;6.00;99.90;;;;;;5033771;28;20191;-71
2021/10/24 03:30:35;;;;;;;12.20;9.60;;;6.00;99.90;;;;;;5033401;28;20273;-72
2021/10/24 03:33:01;;;;;;;10.57;8.97;;;6.00;99.90;;;;;;5033550;28;20539;-72
2021/10/24 03:35:27;;;;;;;9.80;8.90;;;6.00;99.90;;;;;;5033934;28;20889;-72
2021/10/24 03:37:52;;;;;;;10.83;9.20;;;6.00;99.90;;;;;;5033546;28;20257;-72
2021/10/24 03:40:18;;;;;;;10.40;9.30;;;6.00;99.90;;;;;;5033553;28;20258;-72
2021/10/24 03:42:43;;;;;;;10.17;8.90;;;6.00;99.90;;;;;;5033061;28;20176;-72
2021/10/24 03:45:09;;;;;;;9.50;8.57;;;6.00;99.90;;;;;;5033467;28;20157;-72
2021/10/24 03:47:36;;;;;;;12.00;9.37;;;6.00;99.90;;;;;;5033091;28;20211;-72
2021/10/24 03:50:02;;;;;;;10.70;8.60;;;6.00;99.90;;;;;;5033398;28;20409;-72
2021/10/24 03:52:28;;;;;;;11.53;9.37;;;6.00;99.90;;;;;;5033374;28;20400;-71
2021/10/24 03:54:53;;;;;;;10.53;9.43;;;6.00;99.90;;;;;;5033175;28;20824;-72
2021/10/24 03:57:19;;;;;;;9.90;7.70;;;6.00;99.90;;;;;;5033148;28;20174;-72
2021/10/24 03:59:45;;;;;;;10.20;8.60;;;6.00;99.90;;;;;;5032834;28;20186;-72
2021/10/24 04:02:11;;;;;;;11.87;7.50;;;6.10;99.90;;;;;;5033377;28;20223;-72
2021/10/24 04:04:38;;;;;;;9.20;7.10;;;6.10;99.90;;;;;;5033183;28;20402;-72
2021/10/24 04:07:04;;;;;;;10.47;8.00;;;6.10;99.90;;;;;;5032857;28;20189;-71
2021/10/24 04:09:29;;;;;;;8.63;7.73;;;6.10;99.90;;;;;;5032896;28;20483;-74
2021/10/24 04:11:55;;;;;;;10.57;7.60;;;6.10;99.90;;;;;;5032764;28;20444;-72
2021/10/24 04:14:23;;;;;;;10.07;7.00;;;6.10;99.90;;;;;;5032878;28;20252;-75
2021/10/24 04:16:48;;;;;;;9.80;8.03;;;6.10;99.90;;;;;;5032337;28;20205;-71
2021/10/24 04:19:14;;;;;;;9.90;8.87;;;6.10;99.90;;;;;;5032887;28;20402;-72
2021/10/24 04:21:39;;;;;;;10.27;7.00;;;6.10;99.90;;;;;;5032804;28;20169;-74
2021/10/24 04:24:05;;;;;;;11.10;8.50;;;6.10;99.90;;;;;;5032827;28;20162;-74
2021/10/24 04:26:30;;;;;;;12.23;7.77;;;6.10;99.90;;;;;;5032773;28;20510;-74
2021/10/24 04:28:56;;;;;;;8.70;6.43;;;6.10;99.90;;;;;;5032328;28;20184;-75
2021/10/24 04:31:22;;;;;;;9.40;7.47;;;6.10;99.90;;;;;;5032340;28;20189;-73
2021/10/24 04:33:47;;;;;;;12.57;8.30;;;6.10;99.90;;;;;;5032717;28;20414;-74
2021/10/24 04:36:13;;;;;;;10.70;7.20;;;6.10;99.90;;;;;;5032866;28;20169;-74
2021/10/24 04:38:38;;;;;;;11.63;7.07;;;6.10;99.90;;;;;;5032667;28;20240;-74
2021/10/24 04:41:04;;;;;;;7.90;7.20;;;6.10;99.90;;;;;;5032728;28;20158;-73
2021/10/24 04:43:29;;;;;;;8.87;7.53;;;6.10;99.90;;;;;;5032611;28;20533;-73
2021/10/24 04:45:55;;;;;;;10.40;7.20;;;6.10;99.90;;;;;;5032325;28;20210;-74
2021/10/24 04:48:21;;;;;;;12.63;8.93;;;6.10;99.90;;;;;;5032350;28;20196;-74
2021/10/24 04:50:47;;;;;;;10.97;8.17;;;6.10;99.90;;;;;;5032895;28;20171;-74
2021/10/24 04:53:13;;;;;;;10.10;7.33;;;6.10;99.90;;;;;;5032617;28;20388;-74
2021/10/24 04:55:38;;;;;;;13.73;8.10;;;6.10;99.90;;;;;;5032475;28;20249;-73
2021/10/24 04:58:04;;;;;;;8.93;8.13;;;6.10;99.90;;;;;;5032021;28;20173;-74
2021/10/24 05:00:30;;;;;;;13.80;8.53;;;6.10;99.90;;;;;;5032671;28;20430;-74
2021/10/24 05:02:56;;;;;;;11.33;8.63;;;6.10;99.90;;;;;;5032554;28;20188;-74
2021/10/24 05:05:21;;;;;;;16.60;8.03;;;6.10;99.90;;;;;;5032475;28;20399;-74
2021/10/24 05:07:47;;;;;;;8.53;7.67;;;6.10;99.90;;;;;;5032410;28;20200;-74
2021/10/24 05:10:12;;;;;;;9.07;8.17;;;6.10;99.90;;;;;;5032462;28;20161;-74
2021/10/24 05:12:38;;;;;;;8.60;7.70;;;6.10;99.90;;;;;;5032381;28;20163;-73
2021/10/24 05:15:05;;;;;;;11.27;9.47;;;6.10;99.90;;;;;;5032645;28;20632;-74
2021/10/24 05:17:30;;;;;;;14.50;8.20;;;6.10;99.90;;;;;;5032331;28;20161;-74
2021/10/24 05:19:56;;;;;;;12.73;8.77;;;6.10;99.90;;;;;;5032222;28;20863;-73
2021/10/24 05:22:23;;;;;;;9.97;8.70;;;6.10;99.90;;;;;;5032317;28;20163;-73
2021/10/24 05:24:48;;;;;;;12.83;9.03;;;6.10;99.90;;;;;;5032206;28;20154;-74
2021/10/24 05:27:14;;;;;;;11.20;8.80;;;6.10;99.90;;;;;;5031782;28;20448;-74
2021/10/24 05:29:39;;;;;;;9.40;8.40;;;6.10;99.90;;;;;;5033384;28;20467;-74
2021/10/24 05:32:05;;;;;;;11.03;9.13;;;6.10;99.90;;;;;;5036034;28;20186;-74
2021/10/24 05:34:31;;;;;;;10.63;9.00;;;6.10;99.90;;;;;;5035937;28;20596;-74
2021/10/24 05:36:56;;;;;;;11.20;8.77;;;6.10;99.90;;;;;;5035705;28;20511;-74
2021/10/24 05:39:22;;;;;;;12.00;9.40;;;6.10;99.90;;;;;;5035977;28;20167;-75
2021/10/24 05:41:48;;;;;;;10.50;9.50;;;6.00;99.90;;;;;;5035825;28;20174;-74
2021/10/24 05:44:19;;;;;;;10.80;8.40;;;6.00;99.90;;;;;;5035904;28;20164;-74
2021/10/24 05:46:46;;;;;;;10.13;9.03;;;6.00;99.90;;;;;;5035795;28;20217;-74
2021/10/24 05:49:11;;;;;;;11.10;8.87;;;5.90;99.90;;;;;;5036042;28;20392;-74
2021/10/24 05:51:37;;;;;;;13.30;9.43;;;5.90;99.90;;;;;;5035826;28;20756;-73
2021/10/24 05:54:02;;;;;;;11.40;8.50;;;5.90;99.90;;;;;;5035560;28;20629;-73
2021/10/24 05:56:28;;;;;;;13.10;8.57;;;5.90;99.90;;;;;;5035036;28;20180;-73
2021/10/24 05:58:54;;;;;;;12.90;8.70;;;5.90;99.90;;;;;;5035311;28;20236;-74
2021/10/24 06:01:19;;;;;;;11.57;10.33;;;5.80;99.90;;;;;;5035567;28;20155;-74
2021/10/24 06:03:45;;;;;;;10.50;9.40;;;5.80;99.90;;;;;;5035465;28;20156;-74
2021/10/24 06:06:10;;;;;;;9.60;8.60;;;5.80;99.90;;;;;;5035430;28;20176;-73
2021/10/24 06:08:36;;;;;;;11.97;9.53;;;5.80;99.90;;;;;;5035228;28;20674;-73
2021/10/24 06:11:13;;;;;;;12.97;9.67;;;5.70;99.90;;;;;;5035193;28;20273;-74
2021/10/24 06:13:41;;;;;;;9.60;8.20;;;5.70;99.90;;;;;;5035477;28;20404;-74
2021/10/24 06:16:07;;;;;;;15.73;10.03;;;5.70;99.90;;;;;;5034931;28;20425;-74
2021/10/24 06:18:33;;;;;;;10.40;8.13;;;5.60;99.90;;;;;;5035193;28;20394;-74
2021/10/24 06:20:58;;;;;;;11.90;10.20;;;5.60;99.90;;;;;;5035039;28;20233;-74
2021/10/24 06:23:24;;;;;;;11.60;8.83;;;5.50;99.90;;;;;;5035285;28;20261;-74
2021/10/24 06:25:49;;;;;;;12.13;10.20;;;5.50;99.90;;;;;;5035284;28;20595;-71
2021/10/24 06:28:15;;;;;;;11.70;9.27;;;5.50;99.90;;;;;;5034457;28;20594;-72
2021/10/24 06:30:41;;;;;;;10.20;9.10;;;5.50;99.90;;;;;;5034574;28;20228;-74
2021/10/24 06:33:07;;;;;;;10.60;8.10;;;5.40;99.90;;;;;;5035248;28;20163;-74
2021/10/24 06:35:34;;;;;;;11.33;9.50;;;5.40;99.90;;;;;;5034776;28;20386;-74
2021/10/24 06:37:59;;;;;;;12.60;10.03;;;5.30;99.90;;;;;;5035004;28;20164;-73
2021/10/24 06:40:25;;;;;;;12.77;10.87;;;5.40;99.90;;;;;;5034180;28;20551;-73
2021/10/24 06:42:51;;;;;;;12.93;8.83;;;5.30;99.90;;;;;;5034729;28;20623;-74
2021/10/24 06:45:16;;;;;;;14.00;11.43;;;5.40;99.90;;;;;;5034590;28;20726;-74
2021/10/24 06:47:42;;;;;;;15.63;10.17;;;5.40;99.90;;;;;;5034632;28;20228;-74
2021/10/24 06:50:09;;;;;;;10.53;9.53;;;5.40;99.90;;;;;;5034387;28;20534;-75
2021/10/24 06:52:36;;;;;;;14.70;11.47;;;5.40;99.90;;;;;;5034693;28;20160;-74
2021/10/24 06:55:03;;;;;;;12.03;10.13;;;5.40;99.90;;;;;;5034556;28;20442;-74
2021/10/24 06:57:28;;;;;;;14.87;10.80;;;5.40;99.90;;;;;;5034420;28;20411;-74
2021/10/24 06:59:54;;;;;;;14.57;9.63;;;5.40;99.90;;;;;;5033734;28;20433;-73
2021/10/24 07:02:20;;;;;;;10.80;9.40;;;5.50;99.90;;;;;;5034114;28;20183;-75
2021/10/24 07:04:46;;;;;;;10.53;9.37;;;5.50;99.90;;;;;;5034157;28;20600;-74
2021/10/24 07:07:11;;;;;;;15.23;11.00;;;5.60;99.90;;;;;;5033996;28;20660;-74
2021/10/24 07:09:37;;;;;;;11.83;10.63;;;5.60;99.90;;;;;;5034044;28;20161;-73
2021/10/24 07:12:03;;;;;;;11.07;9.83;;;5.60;99.90;;;;;;5034017;28;20182;-74
2021/10/24 07:14:28;;;;;;;11.67;9.03;;;5.70;99.90;;;;;;5034194;28;20610;-73
2021/10/24 07:16:54;;;;;;;11.87;10.10;;;5.70;99.90;;;;;;5034077;28;20533;-74
2021/10/24 07:19:20;;;;;;;15.33;10.57;;;5.80;99.90;;;;;;5033954;28;20233;-74
2021/10/24 07:21:45;;;;;;;10.40;9.30;;;5.80;99.90;;;;;;5034274;28;20537;-74
2021/10/24 07:24:11;;;;;;;13.03;10.37;;;5.90;99.90;;;;;;5033890;28;20397;-74
2021/10/24 07:26:37;;;;;;;15.90;10.90;;;5.90;99.90;;;;;;5033817;28;20220;-73
2021/10/24 07:29:02;;;;;;;12.40;9.10;;;5.90;99.90;;;;;;5033770;28;20182;-74
2021/10/24 07:31:29;;;;;;;10.60;8.10;;;6.00;99.90;;;;;;5033567;28;20199;-74
2021/10/24 07:33:54;;;;;;;10.27;8.30;;;6.10;99.90;;;;;;5033705;28;20228;-74
2021/10/24 07:36:20;;;;;;;10.10;7.77;;;6.10;99.90;;;;;;5033624;28;20434;-74
2021/10/24 07:38:46;;;;;;;7.40;6.70;;;6.20;99.90;;;;;;5033540;28;20170;-74
2021/10/24 07:41:12;;;;;;;11.03;6.10;;;6.30;99.90;;;;;;5033215;28;20169;-74
2021/10/24 07:43:39;;;;;;;8.50;6.20;;;6.40;99.90;;;;;;5033678;28;20524;-74
2021/10/24 07:46:05;;;;;;;6.20;4.70;;;6.40;99.90;;;;;;5033319;28;20934;-74
2021/10/24 07:48:31;;;;;;;6.60;4.50;;;6.60;99.90;;;;;;5033310;28;20448;-74
2021/10/24 07:50:57;;;;;;;6.40;4.77;;;6.70;99.90;;;;;;5033415;28;20495;-74
2021/10/24 07:53:26;;;;;;;5.50;3.50;;;6.80;99.90;;;;;;5032501;28;20183;-74
2021/10/24 07:55:52;;;;;;;5.60;4.50;;;6.90;99.90;;;;;;5033362;28;20389;-74
2021/10/24 07:58:19;;;;;;;5.57;4.40;;;7.00;99.90;;;;;;5033048;28;20437;-75
2021/10/24 08:00:45;;;;;;;5.87;3.90;;;7.10;99.90;;;;;;5032881;28;20417;-73
2021/10/24 08:03:10;;;;;;;7.60;4.20;;;7.20;99.90;;;;;;5033380;28;20872;-72
2021/10/24 08:05:36;;;;;;;7.67;3.90;;;7.30;99.90;;;;;;5033221;28;20222;-74
2021/10/24 08:08:02;;;;;;;5.43;3.87;;;7.40;99.90;;;;;;5033227;28;20190;-74
2021/10/24 08:10:28;;;;;;;7.63;3.50;;;7.40;99.90;;;;;;5032706;28;20486;-73
2021/10/24 08:12:54;;;;;;;5.10;3.90;;;7.50;99.90;;;;;;5033076;28;20402;-72
2021/10/24 08:15:20;;;;;;;6.83;3.60;;;7.60;99.90;;;;;;5033032;28;20238;-72
2021/10/24 08:17:48;;;;;;;4.73;3.70;;;7.70;99.90;;;;;;5033095;28;20170;-72
2021/10/24 08:20:14;;;;;;;4.93;3.90;;;7.80;99.90;;;;;;5032916;28;20649;-73
2021/10/24 08:22:40;;;;;;;5.00;3.23;;;7.80;99.90;;;;;;5033207;28;20407;-72
2021/10/24 08:25:06;;;;;;;5.30;3.60;;;7.90;99.90;;;;;;5032855;28;20399;-72
2021/10/24 08:27:32;;;;;;;5.83;3.20;;;8.10;99.90;;;;;;5032592;28;20542;-73
2021/10/24 08:29:59;;;;;;;9.00;3.80;;;8.10;99.90;;;;;;5032486;28;20495;-72
2021/10/24 08:32:25;;;;;;;10.30;3.63;;;8.20;99.90;;;;;;5032697;28;20246;-72
2021/10/24 08:34:51;;;;;;;7.33;3.50;;;8.30;99.90;;;;;;5032767;28;20493;-73
2021/10/24 08:37:16;;;;;;;3.80;3.00;;;8.30;99.90;;;;;;5032627;28;20255;-72
2021/10/24 08:39:42;;;;;;;7.77;4.20;;;8.40;99.90;;;;;;5032741;28;20157;-73
2021/10/24 08:42:08;;;;;;;5.17;3.77;;;8.40;99.90;;;;;;5031875;28;20176;-71
2021/10/24 08:44:34;;;;;;;5.37;3.47;;;8.50;99.90;;;;;;5032429;28;20903;-73
2021/10/24 08:47:01;;;;;;;5.73;2.93;;;8.50;99.90;;;;;;5032037;28;20459;-73
2021/10/24 08:49:27;;;;;;;5.70;4.03;;;8.60;99.90;;;;;;5032720;28;20410;-73
2021/10/24 08:51:52;;;;;;;9.13;4.13;;;8.70;99.90;;;;;;5032594;28;20417;-73
2021/10/24 08:54:24;;;;;;;5.10;3.90;;;8.70;99.90;;;;;;5032706;28;20622;-72
2021/10/24 08:56:50;;;;;;;5.97;3.40;;;8.80;99.90;;;;;;5032444;28;20171;-72
2021/10/24 08:59:16;;;;;;;8.03;3.60;;;8.80;99.90;;;;;;5032302;28;20404;-73
2021/10/24 09:01:52;;;;;;;4.20;3.80;;;8.80;99.90;;;;;;5031792;28;20259;-73
2021/10/24 09:04:18;;;;;;;5.03;4.53;;;8.90;99.90;;;;;;5035193;28;20160;-72
2021/10/24 09:09:34;;;;;;;7.90;3.53;;;9.10;99.90;;;;;;5069317;28;20508;-68
2021/10/24 09:12:07;;;;;;;5.10;3.87;;;9.20;99.90;;;;;;5069217;28;20429;-66
2021/10/24 09:17:23;;;;;;;5.27;3.60;;;9.20;99.90;;;;;;5069464;28;20627;-68
2021/10/24 09:19:53;;;;;;;8.30;5.00;;;9.30;99.90;;;;;;5051925;28;20466;-68
2021/10/24 09:22:23;;;;;;;5.27;3.93;;;9.40;99.90;;;;;;5068672;28;20425;-68
2021/10/24 09:30:28;;;;;;;4.77;4.00;;;9.50;99.90;;;;;;5069239;28;20521;-69
2021/10/24 09:35:34;;;;;;;4.03;3.33;;;9.60;99.90;;;;;;5062379;28;20664;-67
2021/10/24 09:38:04;;;;;;;5.80;3.57;;;9.70;99.90;;;;;;5049517;28;20380;-67
2021/10/24 09:40:33;;;;;;;4.03;3.07;;;9.70;99.90;;;;;;5048997;28;20810;-68
2021/10/24 09:48:52;;;;;;;3.83;3.40;;;9.80;99.90;;;;;;5069394;28;20946;-69
2021/10/24 09:51:18;;;;;;;6.43;3.23;;;10.00;99.90;;;;;;5069120;28;20412;-69
2021/10/24 09:53:46;;;;;;;5.27;3.40;;;10.00;99.90;;;;;;5051996;28;21028;-68
2021/10/24 09:56:15;;;;;;;9.83;4.17;;;10.10;99.90;;;;;;5049648;28;20170;-69
2021/10/24 09:58:43;;;;;;;9.23;4.20;;;10.10;99.90;;;;;;5055189;28;20420;-69
2021/10/24 10:01:11;;;;;;;5.53;3.37;;;10.10;99.90;;;;;;5049454;28;20397;-68
2021/10/24 10:03:38;;;;;;;4.00;3.20;;;10.20;99.90;;;;;;5049395;28;20411;-68
2021/10/24 10:06:04;;;;;;;6.20;3.97;;;10.30;99.90;;;;;;5049063;28;21013;-69
2021/10/24 10:08:31;;;;;;;4.63;3.47;;;10.30;99.90;;;;;;5063717;28;20548;-68
2021/10/24 10:11:10;;;;;;;6.67;4.40;;;10.30;99.90;;;;;;5049851;28;20434;-68
2021/10/24 10:13:40;;;;;;;6.77;4.33;;;10.40;99.90;;;;;;5049065;28;20406;-68
2021/10/24 10:16:09;;;;;;;10.40;3.60;;;10.40;99.90;;;;;;5049081;28;20397;-68
2021/10/24 10:21:35;;;;;;;7.33;4.43;;;10.50;99.90;;;;;;5069334;28;20595;-67
2021/10/24 10:24:07;;;;;;;6.80;3.70;;;10.60;99.90;;;;;;5069430;28;20395;-68
2021/10/24 10:26:36;;;;;;;6.87;3.70;;;10.60;99.90;;;;;;5068996;28;20906;-68
2021/10/24 10:29:05;;;;;;;4.93;3.07;;;10.60;99.90;;;;;;5052804;28;20468;-68
2021/10/24 10:31:31;;;;;;;5.13;3.07;;;10.60;99.90;;;;;;5067963;28;20409;-68
2021/10/24 10:33:59;;;;;;;3.70;2.80;;;10.70;99.90;;;;;;5069512;28;20393;-67
2021/10/24 10:39:38;;;;;;;6.23;4.00;;;10.80;99.90;;;;;;5069386;28;20550;-68
2021/10/24 10:45:25;;;;;;;4.80;3.80;;;10.90;99.90;;;;;;5109332;27;20539;-67
2021/10/24 10:47:57;;;;;;;4.30;3.70;;;11.00;99.90;;;;;;5109146;28;20486;-67
2021/10/24 10:53:09;;;;;;;7.90;5.77;;;11.00;99.90;;;;;;5069409;28;20512;-68
2021/10/24 11:01:34;;;;;;;6.27;2.83;;;11.40;99.90;;;;;;5055893;28;20522;-66
2021/10/24 11:06:49;;;;;;;5.40;2.57;;;11.40;99.90;;;;;;5089780;28;20502;-69
2021/10/24 11:09:39;;;;;;;4.53;2.80;;;11.60;99.90;;;;;;5089672;28;20377;-68
2021/10/24 11:12:08;;;;;;;3.50;2.43;;;11.60;99.90;;;;;;5068345;28;20774;-69
2021/10/24 11:17:35;;;;;;;2.80;2.50;;;11.60;99.90;;;;;;5064677;28;21167;-68
2021/10/24 11:20:25;;;;;;;2.90;2.37;;;11.70;99.90;;;;;;5048348;28;20399;-68
2021/10/24 11:23:10;;;;;;;3.57;2.47;;;11.70;99.90;;;;;;5048226;28;20379;-69
2021/10/24 11:25:38;;;;;;;6.67;3.10;;;11.70;99.90;;;;;;5035121;28;20427;-69
2021/10/24 11:28:08;;;;;;;3.80;2.70;;;11.80;99.90;;;;;;5029772;28;20939;-67
2021/10/24 11:30:36;;;;;;;3.87;2.90;;;11.80;99.90;;;;;;5037172;28;20411;-68
2021/10/24 11:33:02;;;;;;;3.83;2.50;;;11.80;99.90;;;;;;5049808;28;20406;-69
2021/10/24 11:35:27;;;;;;;7.80;2.67;;;11.80;99.90;;;;;;5049266;28;20450;-68
2021/10/24 11:37:55;;;;;;;6.13;2.43;;;11.80;99.90;;;;;;5049126;28;20846;-68
2021/10/24 11:40:30;;;;;;;5.47;2.57;;;11.90;99.90;;;;;;5048762;28;20237;-68
2021/10/24 11:45:43;;;;;;;5.70;3.20;;;11.90;99.90;;;;;;5069373;28;20654;-68
2021/10/24 11:59:04;;;;;;;5.20;2.20;;;11.90;99.90;;;;;;5069490;28;21051;-67
2021/10/24 12:01:32;;;;;;;3.03;2.43;;;12.40;99.90;;;;;;5069266;28;20932;-68
2021/10/24 12:04:00;;;;;;;5.80;2.50;;;12.40;99.90;;;;;;5069242;28;20413;-67
2021/10/24 12:06:48;;;;;;;4.10;1.90;;;12.40;99.90;;;;;;5069536;28;20827;-67
2021/10/24 12:09:14;;;;;;;5.40;2.40;;;12.40;99.90;;;;;;5055434;28;20995;-69
2021/10/24 12:11:43;;;;;;;5.33;2.50;;;12.40;99.90;;;;;;5064104;28;20449;-67
2021/10/24 12:14:11;;;;;;;3.00;2.00;;;12.50;99.90;;;;;;5069237;28;20418;-68
2021/10/24 12:16:40;;;;;;;2.90;1.83;;;12.50;99.90;;;;;;5069185;28;20384;-68
2021/10/24 12:19:14;;;;;;;4.13;2.00;;;12.60;99.90;;;;;;5069222;28;20398;-68
2021/10/24 12:21:40;;;;;;;2.47;1.80;;;12.60;99.90;;;;;;5068724;28;20504;-67
2021/10/24 12:24:15;;;;;;;2.00;1.80;;;12.60;99.90;;;;;;5065150;28;20419;-67
2021/10/24 12:26:41;;;;;;;3.23;2.03;;;12.60;99.90;;;;;;5065446;28;20413;-68
2021/10/24 12:29:22;;;;;;;2.60;1.93;;;12.70;99.90;;;;;;5068892;28;20394;-69
2021/10/24 12:32:05;;;;;;;5.67;3.00;;;12.80;99.90;;;;;;5068922;28;20772;-69
2021/10/24 12:34:31;;;;;;;4.00;2.83;;;12.90;99.90;;;;;;5068844;28;20470;-68
2021/10/24 12:36:56;;;;;;;3.27;2.10;;;12.80;99.90;;;;;;5068697;28;20445;-67
2021/10/24 12:39:26;;;;;;;5.90;2.10;;;12.80;99.90;;;;;;5068624;28;20172;-67
2021/10/24 12:41:51;;;;;;;2.30;2.10;;;12.70;99.90;;;;;;5066252;28;20184;-67
2021/10/24 12:47:17;;;;;;;2.83;1.97;;;12.70;99.90;;;;;;5069444;28;20516;-67
2021/10/24 12:49:58;;;;;;;3.80;1.67;;;12.80;99.90;;;;;;5069288;28;20777;-67
2021/10/24 12:52:23;;;;;;;2.97;2.00;;;12.80;99.90;;;;;;5066490;28;20418;-67
2021/10/24 12:54:59;;;;;;;3.40;1.93;;;12.80;99.90;;;;;;5049286;28;20387;-68
2021/10/24 12:57:25;;;;;;;3.17;2.13;;;12.80;99.90;;;;;;5049347;28;20175;-67
2021/10/24 12:59:51;;;;;;;5.70;2.97;;;12.80;99.90;;;;;;5049714;28;20411;-68
2021/10/24 13:02:16;;;;;;;2.30;2.10;;;12.80;99.90;;;;;;5066979;28;20914;-68
2021/10/24 13:04:43;;;;;;;2.20;2.00;;;12.80;99.90;;;;;;5069019;28;20620;-68
2021/10/24 13:07:09;;;;;;;2.70;1.93;;;12.80;99.90;;;;;;5069062;28;20147;-68
2021/10/24 13:09:35;;;;;;;5.17;2.10;;;12.90;99.90;;;;;;5069053;28;20482;-68
2021/10/24 13:12:01;;;;;;;3.00;2.30;;;12.80;99.90;;;;;;5069309;28;20373;-68
2021/10/24 13:14:26;;;;;;;3.47;2.60;;;12.70;99.90;;;;;;5068940;28;20156;-67
2021/10/24 13:16:52;;;;;;;3.20;2.47;;;12.60;99.90;;;;;;5059211;28;20418;-67
2021/10/24 13:19:17;;;;;;;6.77;2.67;;;12.60;99.90;;;;;;5048872;28;20163;-67
2021/10/24 13:24:20;;;;;;;3.70;2.70;;;12.50;99.90;;;;;;5053019;28;20525;-68
2021/10/24 13:26:47;;;;;;;3.20;2.17;;;12.50;99.90;;;;;;5069658;28;20393;-67
2021/10/24 13:29:14;;;;;;;2.50;1.90;;;12.50;99.90;;;;;;5069368;28;20167;-67
2021/10/24 13:31:40;;;;;;;3.50;2.03;;;12.50;99.90;;;;;;5057991;28;20399;-67
2021/10/24 13:34:06;;;;;;;4.10;2.23;;;12.60;99.90;;;;;;5037639;28;20777;-68
2021/10/24 13:36:33;;;;;;;2.57;2.00;;;12.60;99.90;;;;;;5029424;28;20201;-67
2021/10/24 13:38:59;;;;;;;3.67;2.30;;;12.60;99.90;;;;;;5029533;28;20442;-67
2021/10/24 13:41:25;;;;;;;2.60;2.20;;;12.60;99.90;;;;;;5037180;28;20435;-67
2021/10/24 13:43:51;;;;;;;4.57;2.03;;;12.60;99.90;;;;;;5049149;28;20503;-68
2021/10/24 13:46:17;;;;;;;2.37;1.70;;;12.60;99.90;;;;;;5049143;28;20550;-67